createdAt,value
2023-04-06T00:01:44.411Z,8.60
2023-04-06T00:04:12.245Z,11.20
2023-04-06T00:06:40.136Z,10.27
2023-04-06T00:09:08.038Z,9.43
2023-04-06T00:11:38.356Z,17.10
2023-04-06T00:14:06.082Z,9.30
2023-04-06T00:16:33.812Z,9.93
2023-04-06T00:19:01.693Z,10.10
2023-04-06T00:21:29.470Z,10.30
2023-04-06T00:23:57.246Z,9.47
2023-04-06T00:26:25.716Z,9.37
2023-04-06T00:28:54.823Z,10.00
2023-04-06T00:31:22.578Z,10.97
2023-04-06T00:33:50.568Z,10.63
2023-04-06T00:36:18.298Z,9.93
2023-04-06T00:38:46.072Z,8.33
2023-04-06T00:41:13.967Z,10.98
2023-04-06T00:43:41.924Z,9.60
2023-04-06T00:46:11.134Z,8.83
2023-04-06T00:48:40.100Z,10.67
2023-04-06T00:51:07.986Z,9.53
2023-04-06T00:53:35.829Z,9.03
2023-04-06T00:56:03.607Z,9.47
2023-04-06T00:58:31.400Z,9.57
2023-04-06T01:01:00.062Z,8.40
2023-04-06T01:03:29.264Z,11.93
2023-04-06T01:05:59.217Z,8.43
2023-04-06T01:08:27.260Z,8.93
2023-04-06T01:10:54.964Z,10.70
2023-04-06T01:13:22.672Z,10.70
2023-04-06T01:15:51.271Z,10.80
2023-04-06T01:18:19.000Z,12.73
2023-04-06T01:20:48.027Z,10.10
2023-04-06T01:23:17.059Z,9.03
2023-04-06T01:25:44.766Z,9.90
2023-04-06T01:28:12.617Z,11.90
2023-04-06T01:30:40.423Z,9.63
2023-04-06T01:33:08.177Z,10.00
2023-04-06T01:35:36.156Z,10.57
2023-04-06T01:38:04.056Z,9.00
2023-04-06T01:40:33.089Z,9.47
2023-04-06T01:43:00.960Z,9.60
2023-04-06T01:45:28.651Z,9.50
2023-04-06T01:47:56.371Z,9.23
2023-04-06T01:50:24.077Z,9.27
2023-04-06T01:52:51.901Z,9.95
2023-04-06T01:55:19.584Z,13.87
2023-04-06T01:57:48.671Z,11.40
2023-04-06T02:00:17.633Z,13.47
2023-04-06T02:02:45.385Z,9.23
2023-04-06T02:05:13.366Z,9.20
2023-04-06T02:07:41.093Z,10.10
2023-04-06T02:10:14.006Z,11.50
2023-04-06T02:12:41.803Z,10.40
2023-04-06T02:15:14.128Z,8.60
2023-04-06T02:17:42.108Z,8.50
2023-04-06T02:20:10.562Z,10.80
2023-04-06T02:22:38.290Z,12.73
2023-04-06T02:25:06.651Z,8.87
2023-04-06T02:27:34.417Z,12.20
2023-04-06T02:30:02.193Z,9.70
2023-04-06T02:32:31.357Z,10.30
2023-04-06T02:34:59.082Z,10.37
2023-04-06T02:37:26.908Z,9.93
2023-04-06T02:39:54.632Z,10.30
2023-04-06T02:42:22.327Z,13.10
2023-04-06T02:44:50.249Z,9.40
2023-04-06T02:47:18.104Z,11.77
2023-04-06T02:49:48.569Z,11.23
2023-04-06T02:52:16.459Z,9.13
2023-04-06T02:54:44.143Z,10.53
2023-04-06T02:57:11.994Z,11.35
2023-04-06T02:59:39.781Z,12.77
2023-04-06T03:02:07.481Z,9.90
2023-04-06T03:04:35.218Z,12.73
2023-04-06T03:07:04.321Z,12.10
2023-04-06T03:09:32.042Z,12.63
2023-04-06T03:11:59.743Z,12.90
2023-04-06T03:14:27.460Z,12.73
2023-04-06T03:16:55.240Z,11.83
2023-04-06T03:19:23.050Z,13.47
2023-04-06T03:21:50.711Z,10.50
2023-04-06T03:24:20.513Z,11.37
2023-04-06T03:26:48.324Z,11.37
2023-04-06T03:29:16.230Z,11.67
2023-04-06T03:31:43.992Z,10.48
2023-04-06T03:34:11.864Z,10.80
2023-04-06T03:36:39.671Z,11.20
2023-04-06T03:39:07.588Z,12.63
2023-04-06T03:41:36.847Z,12.77
2023-04-06T03:44:04.573Z,12.20
2023-04-06T03:46:32.347Z,12.00
2023-04-06T03:49:00.152Z,10.83
2023-04-06T03:51:27.875Z,10.90
2023-04-06T03:53:55.700Z,12.00
2023-04-06T03:56:23.424Z,11.87
2023-04-06T03:58:52.650Z,12.27
2023-04-06T04:01:20.407Z,10.80
2023-04-06T04:03:50.987Z,13.90
2023-04-06T04:06:19.337Z,12.30
2023-04-06T04:08:47.058Z,16.20
2023-04-06T04:11:16.666Z,13.53
2023-04-06T04:13:44.521Z,11.80
2023-04-06T04:16:13.546Z,12.10
2023-04-06T04:18:41.257Z,15.00
2023-04-06T04:21:08.941Z,12.45
2023-04-06T04:23:37.513Z,12.43
2023-04-06T04:26:05.729Z,12.13
2023-04-06T04:28:33.463Z,11.67
2023-04-06T04:31:01.396Z,14.10
2023-04-06T04:33:30.455Z,12.47
2023-04-06T04:35:58.237Z,11.50
2023-04-06T04:38:25.967Z,15.43
2023-04-06T04:40:53.695Z,12.33
2023-04-06T04:43:21.426Z,11.17
2023-04-06T04:45:49.168Z,12.27
2023-04-06T04:48:16.906Z,14.40
2023-04-06T04:50:45.953Z,11.70
2023-04-06T04:53:13.659Z,13.50
2023-04-06T04:55:41.783Z,15.20
2023-04-06T04:58:11.991Z,11.87
2023-04-06T05:00:39.693Z,13.77
2023-04-06T05:03:08.080Z,12.70
2023-04-06T05:05:36.084Z,13.10
2023-04-06T05:08:05.500Z,12.67
2023-04-06T05:10:33.302Z,14.73
2023-04-06T05:13:01.025Z,11.83
2023-04-06T05:15:28.744Z,12.90
2023-04-06T05:17:56.614Z,11.90
2023-04-06T05:20:24.421Z,11.40
2023-04-06T05:22:52.118Z,17.83
2023-04-06T05:25:21.191Z,13.23
2023-04-06T05:27:48.939Z,14.40
2023-04-06T05:30:16.969Z,12.47
2023-04-06T05:32:45.376Z,13.93
2023-04-06T05:35:13.425Z,13.88
2023-04-06T05:37:41.557Z,12.53
2023-04-06T05:40:10.423Z,11.00
2023-04-06T05:42:40.177Z,13.03
2023-04-06T05:45:09.019Z,11.10
2023-04-06T05:47:37.164Z,12.20
2023-04-06T05:50:05.860Z,17.03
2023-04-06T05:52:33.587Z,12.73
2023-04-06T05:55:01.523Z,12.70
2023-04-06T05:57:29.236Z,13.80
2023-04-06T05:59:58.264Z,12.67
2023-04-06T06:02:26.173Z,11.60
2023-04-06T06:04:54.137Z,12.10
2023-04-06T06:07:21.875Z,12.43
2023-04-06T06:09:49.588Z,14.40
2023-04-06T06:12:17.365Z,14.30
2023-04-06T06:14:45.134Z,12.53
2023-04-06T06:19:43.905Z,20.27
2023-04-06T06:22:11.587Z,21.10
2023-04-06T06:24:39.424Z,25.47
2023-04-06T06:27:08.717Z,21.93
2023-04-06T06:29:36.507Z,27.07
2023-04-06T06:32:04.236Z,24.30
2023-04-06T06:34:33.366Z,23.00
2023-04-06T06:37:01.684Z,25.30
2023-04-06T06:39:29.499Z,28.73
2023-04-06T06:41:57.531Z,26.40
2023-04-06T06:44:26.126Z,29.80
2023-04-06T06:46:53.865Z,31.67
2023-04-06T06:49:21.759Z,26.57
2023-04-06T06:51:50.820Z,27.77
2023-04-06T06:54:18.608Z,21.93
2023-04-06T06:56:46.328Z,29.70
2023-04-06T06:59:18.295Z,21.83
2023-04-06T07:01:46.185Z,24.10
2023-04-06T07:04:16.603Z,25.20
2023-04-06T07:06:44.560Z,24.20
2023-04-06T07:09:13.842Z,21.53
2023-04-06T07:11:41.859Z,19.20
2023-04-06T07:14:09.672Z,18.83
2023-04-06T07:16:37.563Z,15.47
2023-04-06T07:19:05.386Z,17.43
2023-04-06T07:21:33.127Z,12.77
2023-04-06T07:24:00.934Z,16.77
2023-04-06T07:26:30.066Z,16.03
2023-04-06T07:28:58.022Z,15.57
2023-04-06T07:31:25.758Z,15.17
2023-04-06T07:33:53.518Z,13.40
2023-04-06T07:36:21.748Z,17.70
2023-04-06T07:38:49.862Z,16.80
2023-04-06T07:41:17.749Z,19.60
2023-04-06T07:43:46.805Z,18.00
2023-04-06T07:46:14.847Z,15.13
2023-04-06T07:48:42.602Z,17.27
2023-04-06T07:51:15.038Z,15.17
2023-04-06T07:53:42.783Z,13.67
2023-04-06T07:56:10.535Z,14.50
2023-04-06T07:58:38.260Z,11.73
2023-04-06T08:01:07.358Z,14.23
2023-04-06T08:03:35.974Z,13.87
2023-04-06T08:06:04.463Z,11.87
2023-04-06T08:08:32.287Z,10.03
2023-04-06T08:11:02.022Z,13.67
2023-04-06T08:13:30.344Z,12.80
2023-04-06T08:15:58.179Z,9.77
2023-04-06T08:18:27.335Z,11.63
2023-04-06T08:20:56.384Z,11.80
2023-04-06T08:23:24.071Z,11.60
2023-04-06T08:25:54.201Z,10.53
2023-04-06T08:28:22.196Z,13.77
2023-04-06T08:30:50.089Z,11.10
2023-04-06T08:33:17.920Z,10.93
2023-04-06T08:35:47.058Z,15.63
2023-04-06T08:38:14.791Z,11.00
2023-04-06T08:40:44.511Z,11.93
2023-04-06T08:43:16.309Z,19.07
2023-04-06T08:45:44.851Z,12.20
2023-04-06T08:48:14.063Z,10.77
2023-04-06T08:50:42.126Z,11.93
2023-04-06T08:53:13.048Z,11.17
2023-04-06T08:55:41.714Z,11.07
2023-04-06T08:58:10.358Z,11.90
2023-04-06T09:00:40.272Z,11.00
2023-04-06T09:03:09.365Z,10.70
2023-04-06T09:05:37.420Z,10.87
2023-04-06T09:08:05.281Z,10.37
2023-04-06T09:10:35.202Z,10.67
2023-04-06T09:13:07.606Z,10.30
2023-04-06T09:15:35.713Z,11.30
2023-04-06T09:18:03.812Z,11.27
2023-04-06T09:20:31.693Z,11.40
2023-04-06T09:22:59.702Z,10.63
2023-04-06T09:25:27.858Z,11.70
2023-04-06T09:28:03.876Z,9.30
2023-04-06T09:30:32.249Z,17.43
2023-04-06T09:33:00.840Z,11.33
2023-04-06T09:35:30.928Z,11.93
2023-04-06T09:37:58.725Z,10.70
2023-04-06T09:40:26.528Z,12.43
2023-04-06T09:42:55.369Z,11.80
2023-04-06T09:45:25.277Z,12.13
2023-04-06T09:47:57.232Z,13.27
2023-04-06T09:50:26.587Z,14.50
2023-04-06T09:52:58.029Z,10.93
2023-04-06T09:55:32.394Z,10.13
2023-04-06T09:58:06.493Z,16.30
2023-04-06T10:00:45.257Z,13.03
2023-04-06T10:03:19.329Z,9.80
2023-04-06T10:05:52.192Z,7.80
2023-04-06T10:08:22.526Z,9.27
2023-04-06T10:10:52.645Z,9.77
2023-04-06T10:13:21.390Z,10.93
2023-04-06T10:15:50.843Z,10.37
2023-04-06T10:18:18.930Z,9.47
2023-04-06T10:20:52.944Z,9.17
2023-04-06T10:23:26.019Z,12.03
2023-04-06T10:25:55.822Z,9.73
2023-04-06T10:28:23.903Z,10.73
2023-04-06T10:30:59.202Z,10.00
2023-04-06T10:33:27.088Z,9.20
2023-04-06T10:35:54.947Z,11.40
2023-04-06T10:38:23.712Z,8.70
2023-04-06T10:40:51.673Z,10.07
2023-04-06T10:43:22.217Z,11.70
2023-04-06T10:45:57.698Z,9.10
2023-04-06T10:48:26.873Z,11.40
2023-04-06T10:50:56.301Z,9.70
2023-04-06T10:53:25.477Z,8.37
2023-04-06T10:55:54.146Z,10.03
2023-04-06T10:58:22.130Z,10.87
2023-04-06T11:00:51.588Z,11.17
2023-04-06T11:03:21.345Z,10.00
2023-04-06T11:05:50.808Z,10.10
2023-04-06T11:08:26.459Z,8.63
2023-04-06T11:10:54.295Z,9.60
2023-04-06T11:13:22.089Z,10.10
2023-04-06T11:15:50.103Z,9.47
2023-04-06T11:18:21.311Z,10.00
2023-04-06T11:20:51.931Z,10.17
2023-04-06T11:23:28.760Z,9.00
2023-04-06T11:25:56.730Z,9.27
2023-04-06T11:28:24.537Z,9.83
2023-04-06T11:30:52.355Z,12.00
2023-04-06T11:33:24.522Z,11.80
2023-04-06T11:35:52.395Z,8.60
2023-04-06T11:38:21.176Z,9.33
2023-04-06T11:40:49.012Z,9.80
2023-04-06T11:43:16.736Z,8.07
2023-04-06T11:45:45.130Z,9.20
2023-04-06T11:48:21.563Z,9.27
2023-04-06T11:50:56.925Z,8.80
2023-04-06T11:53:24.690Z,8.07
2023-04-06T11:55:52.664Z,10.47
2023-04-06T11:58:20.597Z,9.23
2023-04-06T12:00:48.366Z,10.50
2023-04-06T12:03:16.559Z,10.47
2023-04-06T12:05:45.746Z,10.53
2023-04-06T12:08:14.979Z,9.03
2023-04-06T12:10:42.762Z,10.37
2023-04-06T12:13:10.457Z,11.00
2023-04-06T12:15:38.194Z,9.20
2023-04-06T12:18:06.170Z,9.17
2023-04-06T12:20:33.976Z,10.67
2023-04-06T12:23:01.804Z,12.17
2023-04-06T12:25:31.865Z,10.63
2023-04-06T12:28:00.100Z,9.40
2023-04-06T12:30:27.814Z,9.97
2023-04-06T12:32:55.964Z,10.07
2023-04-06T12:35:23.927Z,11.93
2023-04-06T12:37:51.839Z,9.83
2023-04-06T12:40:19.728Z,10.10
2023-04-06T12:42:48.931Z,11.80
2023-04-06T12:45:17.259Z,9.20
2023-04-06T12:47:45.033Z,11.70
2023-04-06T12:50:12.843Z,11.67
2023-04-06T12:52:40.899Z,10.40
2023-04-06T12:55:09.694Z,10.60
2023-04-06T12:57:38.314Z,9.97
2023-04-06T13:00:10.054Z,9.00
2023-04-06T13:02:37.993Z,9.73
2023-04-06T13:05:06.311Z,10.90
2023-04-06T13:07:34.058Z,11.03
2023-04-06T13:10:01.768Z,12.80
2023-04-06T13:12:29.491Z,13.70
2023-04-06T13:14:57.733Z,13.23
2023-04-06T13:17:29.338Z,9.70
2023-04-06T13:19:57.176Z,10.57
2023-04-06T13:22:24.985Z,9.80
2023-04-06T13:24:52.706Z,10.23
2023-04-06T13:27:20.470Z,10.63
2023-04-06T13:29:48.190Z,8.90
2023-04-06T13:32:16.699Z,8.20
2023-04-06T13:34:45.948Z,9.60
2023-04-06T13:37:14.716Z,8.53
2023-04-06T13:39:42.431Z,9.70
2023-04-06T13:42:11.058Z,10.30
2023-04-06T13:44:38.802Z,10.70
2023-04-06T13:47:06.713Z,12.77
2023-04-06T13:49:34.500Z,12.03
2023-04-06T13:52:03.626Z,10.43
2023-04-06T13:54:31.348Z,12.50
2023-04-06T13:56:59.058Z,13.53
2023-04-06T13:59:26.836Z,9.97
2023-04-06T14:01:54.914Z,12.33
2023-04-06T14:04:22.729Z,12.60
2023-04-06T14:06:50.483Z,12.93
2023-04-06T14:09:19.547Z,10.73
2023-04-06T14:11:47.329Z,12.00
2023-04-06T14:14:15.504Z,12.60
2023-04-06T14:16:45.032Z,10.57
2023-04-06T14:19:13.293Z,9.77
2023-04-06T14:21:41.183Z,11.20
2023-04-06T14:24:09.703Z,10.00
2023-04-06T14:26:39.938Z,10.97
2023-04-06T14:29:08.064Z,11.80
2023-04-06T14:31:36.564Z,12.00
2023-04-06T14:34:05.578Z,11.90
2023-04-06T14:36:37.372Z,13.47
2023-04-06T14:39:06.741Z,12.43
2023-04-06T14:41:35.686Z,10.70
2023-04-06T14:44:05.790Z,11.60
2023-04-06T14:46:33.630Z,11.07
2023-04-06T14:49:01.449Z,13.67
2023-04-06T14:51:29.396Z,11.20
2023-04-06T14:53:57.200Z,14.30
2023-04-06T14:56:25.493Z,10.73
2023-04-06T14:58:53.478Z,13.30
2023-04-06T15:01:22.945Z,8.67
2023-04-06T15:03:50.984Z,11.60
2023-04-06T15:06:21.506Z,12.70
2023-04-06T15:08:50.270Z,9.03
2023-04-06T15:11:18.049Z,11.00
2023-04-06T15:13:49.006Z,11.00
2023-04-06T15:16:16.891Z,9.30
2023-04-06T15:18:46.166Z,11.43
2023-04-06T15:21:13.878Z,9.90
2023-04-06T15:23:41.731Z,10.30
2023-04-06T15:26:09.530Z,9.17
2023-04-06T15:28:37.251Z,11.27
2023-04-06T15:31:07.169Z,12.90
2023-04-06T15:33:35.066Z,10.80
2023-04-06T15:36:14.513Z,11.17
2023-04-06T15:38:42.320Z,10.57
2023-04-06T15:41:11.253Z,10.00
2023-04-06T15:43:40.616Z,11.57
2023-04-06T15:48:41.886Z,15.57
2023-04-06T15:51:11.260Z,9.90
2023-04-06T15:53:39.430Z,10.70
2023-04-06T15:56:09.473Z,11.67
2023-04-06T15:58:37.461Z,9.60
2023-04-06T16:01:12.842Z,11.70
2023-04-06T16:03:40.927Z,9.33
2023-04-06T16:06:10.621Z,9.77
2023-04-06T16:08:39.209Z,11.47
2023-04-06T16:11:07.076Z,10.13
2023-04-06T16:13:34.949Z,9.33
2023-04-06T16:16:03.894Z,11.93
2023-04-06T16:18:34.125Z,10.97
2023-04-06T16:21:04.065Z,9.60
2023-04-06T16:23:33.617Z,11.10
2023-04-06T16:26:01.863Z,11.20
2023-04-06T16:28:29.639Z,12.80
2023-04-06T16:30:57.922Z,10.97
2023-04-06T16:33:25.686Z,11.87
2023-04-06T16:35:53.413Z,14.73
2023-04-06T16:38:22.769Z,11.37
2023-04-06T16:41:00.771Z,10.20
2023-04-06T16:43:28.557Z,11.43
2023-04-06T16:45:56.496Z,11.17
2023-04-06T16:48:24.684Z,10.67
2023-04-06T16:50:52.471Z,12.30
2023-04-06T16:53:20.330Z,11.30
2023-04-06T16:55:48.061Z,10.90
2023-04-06T16:58:17.143Z,12.43
2023-04-06T17:00:45.254Z,10.90
2023-04-06T17:03:13.108Z,10.47
2023-04-06T17:05:41.072Z,11.63
2023-04-06T17:08:08.951Z,10.13
2023-04-06T17:10:46.443Z,11.60
2023-04-06T17:13:25.684Z,11.00
2023-04-06T17:15:53.577Z,10.97
2023-04-06T17:18:21.303Z,13.03
2023-04-06T17:20:49.780Z,11.60
2023-04-06T17:23:18.053Z,11.43
2023-04-06T17:25:45.864Z,12.20
2023-04-06T17:28:13.615Z,11.37
2023-04-06T17:30:43.150Z,11.00
2023-04-06T17:33:10.998Z,13.67
2023-04-06T17:35:38.947Z,22.33
2023-04-06T17:38:08.113Z,11.30
2023-04-06T17:40:37.554Z,11.90
2023-04-06T17:43:05.656Z,11.37
2023-04-06T17:45:33.486Z,13.57
2023-04-06T17:48:02.605Z,11.93
2023-04-06T17:50:30.569Z,11.00
2023-04-06T17:52:58.391Z,13.93
2023-04-06T17:55:26.116Z,12.60
2023-04-06T17:57:53.825Z,13.13
2023-04-06T18:00:24.246Z,14.20
2023-04-06T18:02:53.023Z,13.80
2023-04-06T18:05:23.268Z,12.00
2023-04-06T18:07:52.576Z,12.93
2023-04-06T18:10:20.372Z,13.33
2023-04-06T18:12:48.104Z,14.00
2023-04-06T18:15:16.904Z,13.17
2023-04-06T18:17:45.239Z,12.90
2023-04-06T18:20:14.263Z,12.83
2023-04-06T18:22:44.814Z,14.00
2023-04-06T18:25:12.897Z,11.50
2023-04-06T18:27:40.658Z,13.80
2023-04-06T18:30:09.359Z,12.97
2023-04-06T18:32:37.115Z,11.90
2023-04-06T18:35:06.733Z,11.60
2023-04-06T18:37:34.445Z,14.80
2023-04-06T18:40:04.041Z,15.33
2023-04-06T18:42:31.763Z,13.53
2023-04-06T18:44:59.465Z,14.93
2023-04-06T18:47:27.212Z,12.57
2023-04-06T18:49:55.053Z,13.80
2023-04-06T18:52:22.763Z,14.20
2023-04-06T18:54:50.640Z,14.97
2023-04-06T18:57:19.690Z,12.20
2023-04-06T18:59:47.544Z,14.30
2023-04-06T19:02:15.344Z,19.03
2023-04-06T19:04:43.225Z,11.37
2023-04-06T19:07:11.106Z,11.07
2023-04-06T19:09:38.898Z,14.70
2023-04-06T19:12:06.972Z,12.90
2023-04-06T19:14:36.330Z,12.33
2023-04-06T19:17:04.093Z,13.23
2023-04-06T19:19:31.837Z,14.80
2023-04-06T19:22:00.598Z,13.83
2023-04-06T19:24:28.298Z,11.67
2023-04-06T19:26:57.102Z,15.30
2023-04-06T19:29:24.903Z,13.97
2023-04-06T19:31:54.012Z,13.23
2023-04-06T19:34:22.369Z,13.63
2023-04-06T19:36:50.053Z,13.67
2023-04-06T19:39:18.349Z,13.73
2023-04-06T19:41:46.046Z,14.40
2023-04-06T19:44:13.848Z,14.23
2023-04-06T19:46:42.426Z,12.10
2023-04-06T19:49:11.728Z,15.93
2023-04-06T19:51:39.540Z,16.00
2023-04-06T19:54:07.806Z,17.17
2023-04-06T19:56:35.507Z,13.97
2023-04-06T19:59:03.261Z,16.03
2023-04-06T20:01:31.035Z,14.07
2023-04-06T20:03:58.985Z,15.57
2023-04-06T20:06:28.107Z,16.47
2023-04-06T20:08:56.027Z,15.23
2023-04-06T20:11:23.723Z,18.80
2023-04-06T20:13:51.712Z,17.07
2023-04-06T20:16:19.513Z,16.70
2023-04-06T20:18:47.242Z,14.00
2023-04-06T20:21:14.915Z,16.27
2023-04-06T20:23:43.978Z,15.27
2023-04-06T20:26:11.656Z,15.23
2023-04-06T20:28:39.752Z,15.30
2023-04-06T20:31:07.853Z,14.73
2023-04-06T20:33:35.955Z,17.93
2023-04-06T20:36:04.273Z,18.97
2023-04-06T20:38:33.588Z,26.57
2023-04-06T20:41:03.041Z,29.20
2023-04-06T20:43:31.521Z,33.93
2023-04-06T20:46:01.884Z,31.40
2023-04-06T20:48:33.395Z,27.60
2023-04-06T20:51:02.026Z,26.40
2023-04-06T20:53:29.882Z,24.87
2023-04-06T20:55:58.077Z,26.97
2023-04-06T20:58:27.127Z,25.20
2023-04-06T21:00:54.812Z,24.33
2023-04-06T21:03:22.704Z,21.67
2023-04-06T21:05:53.780Z,21.50
2023-04-06T21:08:21.471Z,19.97
2023-04-06T21:10:49.167Z,18.90
2023-04-06T21:13:16.873Z,14.10
2023-04-06T21:15:45.987Z,15.37
2023-04-06T21:18:13.820Z,13.70
2023-04-06T21:20:41.576Z,12.00
2023-04-06T21:23:09.317Z,13.03
2023-04-06T21:25:37.740Z,13.80
2023-04-06T21:28:06.013Z,12.60
2023-04-06T21:30:36.953Z,11.50
2023-04-06T21:33:06.425Z,13.27
2023-04-06T21:35:34.652Z,13.20
2023-04-06T21:38:02.495Z,12.73
2023-04-06T21:40:30.190Z,13.00
2023-04-06T21:42:57.996Z,13.00
2023-04-06T21:45:26.036Z,12.23
2023-04-06T21:47:53.965Z,11.87
2023-04-06T21:50:23.086Z,14.77
2023-04-06T21:52:50.945Z,14.13
2023-04-06T21:55:18.755Z,11.87
2023-04-06T21:57:46.466Z,12.60
2023-04-06T22:00:15.330Z,12.20
2023-04-06T22:02:44.339Z,12.03
2023-04-06T22:05:12.814Z,10.90
2023-04-06T22:07:41.912Z,12.20
2023-04-06T22:10:09.941Z,11.40
2023-04-06T22:12:37.790Z,11.70
2023-04-06T22:15:06.441Z,12.27
2023-04-06T22:17:34.283Z,12.23
2023-04-06T22:20:02.105Z,14.13
2023-04-06T22:22:29.801Z,12.23
2023-04-06T22:25:00.368Z,12.90
2023-04-06T22:27:28.275Z,11.93
2023-04-06T22:29:56.107Z,13.77
2023-04-06T22:32:24.065Z,14.03
2023-04-06T22:34:51.978Z,15.10
2023-04-06T22:37:19.703Z,13.57
2023-04-06T22:39:47.441Z,12.13
2023-04-06T22:42:16.457Z,13.97
2023-04-06T22:44:44.172Z,15.27
2023-04-06T22:47:11.967Z,16.70
2023-04-06T22:49:39.708Z,14.30
2023-04-06T22:52:07.448Z,16.67
2023-04-06T22:54:35.537Z,14.37
2023-04-06T22:57:03.261Z,18.00
2023-04-06T22:59:32.342Z,15.90
2023-04-06T23:02:00.172Z,18.20
2023-04-06T23:04:28.211Z,15.40
2023-04-06T23:06:56.036Z,15.57
2023-04-06T23:09:23.765Z,14.60
2023-04-06T23:11:51.486Z,16.50
2023-04-06T23:14:19.233Z,14.40
2023-04-06T23:16:48.294Z,14.17
2023-04-06T23:19:16.073Z,14.07
2023-04-06T23:21:43.828Z,17.47
2023-04-06T23:24:11.558Z,17.80
2023-04-06T23:26:39.273Z,17.03
2023-04-06T23:29:07.111Z,14.97
2023-04-06T23:31:34.793Z,13.83
2023-04-06T23:34:03.986Z,17.10
2023-04-06T23:36:32.894Z,19.97
2023-04-06T23:39:00.871Z,16.10
2023-04-06T23:41:28.641Z,14.47
2023-04-06T23:43:56.549Z,17.37
2023-04-06T23:46:24.791Z,16.33
2023-04-06T23:48:52.625Z,16.80
2023-04-06T23:51:21.709Z,16.70
2023-04-06T23:53:49.442Z,17.00
2023-04-06T23:56:17.151Z,17.70
2023-04-06T23:58:45.284Z,24.10
